Accueil
METAR-TAF:

METAR-TAF

Aéroports :

Aéroport de Paris-Le Bourget

Paris, France

latitude: 48-58N, longitude: 002-27E, altitude: 66 m

Observation

Le bulletin a été fait il y a 25 minutes, à 19:00 UTC
Vent 5 kt de nord
Température 14°C
Humidité 77%
Pression 1025 hPa
Visibilité: 7000 m

METAR: LFPB 191900Z AUTO 36005KT 7000 NSC 14/10 Q1025 NOSIG

Heure: 21:25 (19:25 UTC)

Prévision

Le bulletin a été fait il y a 2 heures et 25 minutes, à 17:00 UTC
Prévision valable du 19 à 18 UTC au 20 à 18 UTC
Vent 10 kt de nord/nord-est
Visibilité 10 km ou plus
pas de nuages en-dessous de 1500 mètres et pas de cumulonimbus.
Probabilité 30%
du 20 à 04 UTC au 20 à 06 UTC
Visibilité: 4500 m
brume

TAF: LFPB 191700Z 1918/2018 02010KT CAVOK PROB30 2004/2006 4500 BR

Observations et prévisions météorologiques de plus de 4000 aéroports (messages METAR et TAF).

Les stations disponibles sont représentées par des disques jaunes et rouges sur la carte.

Passer la souris dessus pour voir le nom de la station.

Cliquer dessus pour voir les observations et prévisions météorologiques.

Pour changer de carte: cliquez sur les boutons verts avec une croix noire pour zoomer, sur le bouton vert avec un tiret pour effectuer un zoom arrière, ou sur les flèches vertes pour les cartes adjacentes.


METAR-TAF: